Time;durP1;ratioP1;P1;durP2;ratioP2;P2;SDS_P1;SDS_P2;PMS_P1;PMS_P2;Temp;Humidity;BMP_temperature;BMP_pressure;BME280_temperature;BME280_humidity;BME280_pressure;Samples;Min_cycle;Max_cycle;Signal;HPM_P1;HPM_P2
2022/04/16 00:00:52;;;;;;;20.98;15.27;;;;;;;6.33;87.53;103070.59;6188217;23;20009;-87
2022/04/16 00:03:19;;;;;;;21.52;16.63;;;;;;;6.34;87.51;103071.44;6189387;23;20009;-87
2022/04/16 00:05:47;;;;;;;21.85;16.50;;;;;;;6.34;87.51;103068.88;6162236;23;20050;-78
2022/04/16 00:08:12;;;;;;;19.58;15.38;;;;;;;6.16;87.74;103045.94;6160797;23;20048;-87
2022/04/16 00:10:39;;;;;;;20.85;15.55;;;;;;;6.31;87.73;103066.34;6187655;23;20037;-84
2022/04/16 00:13:05;;;;;;;21.73;15.80;;;;;;;6.03;87.98;103024.69;6186892;23;20005;-87
2022/04/16 00:15:31;;;;;;;20.73;16.38;;;;;;;5.95;87.83;103011.94;6162520;23;20028;-87
2022/04/16 00:17:57;;;;;;;20.13;16.38;;;;;;;6.23;88.00;103052.75;6162123;23;20012;-87
2022/04/16 00:20:25;;;;;;;21.05;16.30;;;;;;;6.30;88.07;103064.66;6188099;23;20009;-84
2022/04/16 00:22:54;;;;;;;21.15;16.65;;;;;;;6.21;88.06;103049.34;6187918;23;20008;-81
2022/04/16 00:25:23;;;;;;;18.77;15.50;;;;;;;6.03;87.94;103037.53;6187382;23;20001;-87
2022/04/16 00:27:49;;;;;;;22.92;16.27;;;;;;;6.14;88.03;103058.78;6160191;23;20498;-80
2022/04/16 00:30:17;;;;;;;19.08;15.85;;;;;;;6.19;88.37;103061.31;6185836;23;20008;-78
2022/04/16 00:32:44;;;;;;;20.85;16.85;;;;;;;6.06;87.99;103046.91;6186737;23;20013;-84
2022/04/16 00:35:15;;;;;;;20.25;16.17;;;;;;;6.17;88.23;103073.31;6185876;23;20001;-87
2022/04/16 00:37:40;;;;;;;21.10;16.17;;;;;;;6.14;88.16;103070.78;6186098;23;20039;-85
2022/04/16 00:40:06;;;;;;;21.48;16.42;;;;;;;6.12;87.99;103065.66;6159802;23;20005;-78
2022/04/16 00:42:37;;;;;;;20.08;16.80;;;;;;;6.06;88.61;103068.28;6185421;23;20013;-78
2022/04/16 00:45:03;;;;;;;19.10;16.30;;;;;;;6.02;88.46;103074.31;6185795;23;20451;-86
2022/04/16 00:47:28;;;;;;;22.02;16.90;;;;;;;6.01;89.13;103076.00;6186309;23;20016;-79
2022/04/16 00:49:54;;;;;;;23.17;17.42;;;;;;;5.98;89.04;103076.00;6186672;23;20009;-78
2022/04/16 00:52:20;;;;;;;21.30;16.50;;;;;;;5.95;89.23;103070.91;6185528;23;20012;-78
2022/04/16 00:54:46;;;;;;;22.60;17.42;;;;;;;5.68;89.28;103037.75;6158990;23;20339;-77
2022/04/16 00:57:12;;;;;;;22.80;18.30;;;;;;;5.71;89.79;103048.00;6185626;23;20009;-78
2022/04/16 00:59:37;;;;;;;22.20;17.25;;;;;;;5.87;89.77;103074.38;6185686;23;20005;-76
2022/04/16 01:02:08;;;;;;;22.88;17.98;;;;;;;5.82;89.88;103074.41;6185586;23;20013;-78
2022/04/16 01:04:33;;;;;;;21.98;17.45;;;;;;;5.81;89.88;103071.88;6185803;23;20331;-78
2022/04/16 01:07:01;;;;;;;25.05;18.00;;;;;;;5.78;89.88;103072.72;6185481;23;20001;-78
2022/04/16 01:09:26;;;;;;;22.00;17.98;;;;;;;5.66;90.21;103057.44;6185326;23;20005;-78
2022/04/16 01:11:52;;;;;;;24.40;18.58;;;;;;;5.34;90.61;103006.41;6158425;23;20013;-78
2022/04/16 01:14:19;;;;;;;24.65;18.30;;;;;;;5.58;90.82;103043.81;6185849;23;20011;-77
2022/04/16 01:16:45;;;;;;;22.38;18.00;;;;;;;5.70;90.51;103075.34;6158378;23;20033;-78
2022/04/16 01:19:11;;;;;;;25.05;19.33;;;;;;;5.69;90.90;103075.34;6158796;23;20335;-77
2022/04/16 01:21:36;;;;;;;23.48;18.92;;;;;;;5.67;91.00;103079.63;6185747;23;20419;-78
2022/04/16 01:24:02;;;;;;;24.23;19.58;;;;;;;5.39;91.32;103036.22;6185433;23;20411;-78
2022/04/16 01:26:29;;;;;;;25.38;19.17;;;;;;;5.62;91.35;103078.84;6185947;23;20080;-77
2022/04/16 01:28:54;;;;;;;26.98;19.58;;;;;;;5.62;91.43;103079.69;6185915;23;20318;-77
2022/04/16 01:31:19;;;;;;;23.77;19.73;;;;;;;5.32;91.47;103044.00;6185382;23;20037;-79
2022/04/16 01:33:48;;;;;;;27.00;19.85;;;;;;;5.43;91.60;103058.44;6185489;23;20040;-78
2022/04/16 01:36:13;;;;;;;29.23;19.50;;;;;;;5.48;91.87;103077.19;6185795;23;20005;-77
2022/04/16 01:38:39;;;;;;;24.90;19.33;;;;;;;5.54;91.72;103084.00;6185238;23;20136;-77
2022/04/16 01:41:04;;;;;;;28.40;20.08;;;;;;;5.48;91.90;103074.63;6185190;23;20017;-78
2022/04/16 01:43:30;;;;;;;25.30;20.15;;;;;;;5.52;92.03;103100.25;6185618;23;20005;-78
2022/04/16 01:45:57;;;;;;;27.60;20.65;;;;;;;5.29;92.47;103065.31;6185749;23;20085;-78
2022/04/16 01:48:27;;;;;;;33.45;21.33;;;;;;;5.40;92.81;103089.19;6185781;23;20001;-78
2022/04/16 01:51:01;;;;;;;26.98;21.05;;;;;;;5.27;92.92;103063.63;6185930;23;20013;-77
2022/04/16 01:53:26;;;;;;;29.17;20.38;;;;;;;5.27;92.76;103069.63;6185102;23;20001;-77
2022/04/16 01:55:51;;;;;;;26.30;20.25;;;;;;;5.47;93.15;103097.69;6185726;23;20012;-78
2022/04/16 01:58:17;;;;;;;29.02;21.63;;;;;;;5.19;93.07;103049.16;6185496;23;20012;-78
2022/04/16 02:00:42;;;;;;;24.58;19.92;;;;;;;5.40;93.06;103091.75;6159120;23;20015;-76
2022/04/16 02:03:08;;;;;;;27.95;20.80;;;;;;;5.43;93.23;103089.19;6185453;23;20008;-78
2022/04/16 02:05:34;;;;;;;25.92;20.05;;;;;;;5.24;93.45;103067.06;6187161;23;20435;-78
2022/04/16 02:08:00;;;;;;;30.33;21.48;;;;;;;5.39;93.16;103097.72;6187013;23;20411;-79
2022/04/16 02:10:25;;;;;;;28.90;21.80;;;;;;;5.40;94.05;103094.31;6187173;23;20008;-78
2022/04/16 02:12:50;;;;;;;26.60;21.02;;;;;;;5.25;93.92;103071.34;6160301;23;20372;-78
2022/04/16 02:15:16;;;;;;;29.38;21.58;;;;;;;5.38;93.65;103093.47;6187150;23;20419;-78
2022/04/16 02:17:41;;;;;;;30.05;22.17;;;;;;;5.37;93.88;103083.22;6187318;23;20014;-78
2022/04/16 02:20:09;;;;;;;29.02;21.25;;;;;;;5.34;94.03;103089.22;6187134;23;20415;-78
2022/04/16 02:22:42;;;;;;;29.63;22.20;;;;;;;5.33;94.56;103086.69;6186865;23;20009;-77
2022/04/16 02:25:08;;;;;;;30.05;21.08;;;;;;;5.28;94.61;103090.97;6187034;23;20075;-77
2022/04/16 02:27:34;;;;;;;32.30;23.83;;;;;;;5.16;94.38;103071.38;6187152;23;20332;-78
2022/04/16 02:30:04;;;;;;;30.95;23.08;;;;;;;5.28;94.66;103086.69;6187351;23;20001;-79
2022/04/16 02:32:31;;;;;;;29.42;22.23;;;;;;;5.23;94.88;103088.44;6187033;23;20371;-78
2022/04/16 02:34:56;;;;;;;30.58;23.23;;;;;;;4.76;95.32;103016.91;6186719;23;20080;-78
2022/04/16 02:37:22;;;;;;;31.50;23.30;;;;;;;5.18;95.18;103092.72;6187009;23;20031;-78
2022/04/16 02:39:47;;;;;;;30.00;22.63;;;;;;;5.15;95.07;103097.84;6186998;23;20112;-78
2022/04/16 02:42:13;;;;;;;31.33;23.27;;;;;;;5.12;95.67;103097.88;6186860;23;20450;-77
2022/04/16 02:47:22;;;;;;;31.83;23.40;;;;;;;5.06;95.92;103103.84;6187225;23;20554;-78
2022/04/16 02:49:47;;;;;;;32.90;23.17;;;;;;;4.93;95.99;103084.28;6186789;23;20005;-78
2022/04/16 02:52:13;;;;;;;34.40;23.42;;;;;;;4.77;95.63;103057.88;6187127;23;20005;-78
2022/04/16 02:54:38;;;;;;;31.67;23.08;;;;;;;4.93;95.76;103097.09;6186711;23;20011;-78
2022/04/16 02:57:04;;;;;;;31.10;23.80;;;;;;;4.96;96.49;103111.56;6186889;23;20013;-78
2022/04/16 02:59:29;;;;;;;33.55;23.35;;;;;;;4.90;96.33;103103.03;6187099;23;20005;-77
2022/04/16 03:01:55;;;;;;;33.28;23.73;;;;;;;4.92;96.81;103112.41;6186802;23;20001;-78
2022/04/16 03:04:21;;;;;;;34.47;23.10;;;;;;;4.87;96.44;103107.31;6187390;23;20024;-78
2022/04/16 03:06:46;;;;;;;33.47;24.17;;;;;;;4.85;96.37;103109.03;6160302;23;20005;-87
2022/04/16 03:09:11;;;;;;;33.25;23.55;;;;;;;4.83;96.91;103108.22;6187095;23;20084;-86
2022/04/16 03:11:37;;;;;;;33.03;23.20;;;;;;;4.80;97.02;103114.16;6186815;23;20005;-87
2022/04/16 03:17:31;;;;;;;34.65;24.92;;;;;;;4.77;96.76;103121.84;6186694;23;20012;-86
2022/04/16 03:19:32;;;;;;;35.90;24.60;;;;;;;4.56;97.42;103086.94;6186788;23;20019;-87
2022/04/16 03:21:57;;;;;;;30.70;23.42;;;;;;;4.66;97.72;103107.38;6186758;23;20076;-78
2022/04/16 03:24:22;;;;;;;34.10;23.75;;;;;;;4.67;97.76;103115.06;6186549;23;20005;-78
2022/04/16 03:26:48;;;;;;;33.00;23.42;;;;;;;4.49;97.73;103087.78;6186511;23;20451;-87
2022/04/16 03:29:14;;;;;;;32.75;23.75;;;;;;;4.38;97.92;103074.16;6186601;23;20005;-84
2022/04/16 03:31:40;;;;;;;36.10;24.33;;;;;;;4.62;98.00;103116.75;6186712;23;20055;-77
2022/04/16 03:34:06;;;;;;;34.50;23.95;;;;;;;4.54;98.09;103113.38;6186711;23;20001;-77
2022/04/16 03:36:32;;;;;;;33.83;24.23;;;;;;;4.61;98.18;103120.16;6187010;23;20016;-85
2022/04/16 03:38:57;;;;;;;35.58;24.33;;;;;;;4.43;98.12;103099.75;6187189;23;20415;-79
2022/04/16 03:41:23;;;;;;;33.30;25.17;;;;;;;4.56;98.51;103124.47;6188015;23;20017;-87
2022/04/16 03:43:48;;;;;;;33.85;24.38;;;;;;;4.53;98.58;103122.75;6188821;23;20003;-86
2022/04/16 03:46:13;;;;;;;33.70;24.73;;;;;;;4.51;98.45;103124.44;6188019;23;20008;-78
2022/04/16 03:48:39;;;;;;;34.22;23.98;;;;;;;4.50;98.72;103120.19;6189227;23;20051;-83
2022/04/16 03:51:04;;;;;;;35.38;25.13;;;;;;;4.34;99.04;103099.75;6188389;23;20055;-90
2022/04/16 03:53:36;;;;;;;34.30;24.70;;;;;;;4.46;99.33;103122.75;6188859;23;20009;-78
2022/04/16 04:01:29;;;;;;;34.67;25.65;;;;;;;4.27;99.56;103101.44;6186395;23;20051;-78
2022/04/16 04:03:54;;;;;;;35.88;25.27;;;;;;;4.18;99.30;103092.06;6186227;23;20005;-78
2022/04/16 04:06:20;;;;;;;36.80;25.48;;;;;;;4.08;99.62;103076.72;6185274;23;20009;-77
2022/04/16 04:08:45;;;;;;;41.38;25.88;;;;;;;4.16;100.00;103093.78;6186438;23;20008;-78
2022/04/16 04:11:10;;;;;;;33.10;24.70;;;;;;;4.26;100.00;103115.94;6185621;23;20009;-78
2022/04/16 04:13:36;;;;;;;35.55;25.33;;;;;;;3.93;100.00;103067.34;6186026;23;20383;-89
2022/04/16 04:16:01;;;;;;;36.58;26.70;;;;;;;4.30;100.00;103130.44;6185988;23;20059;-78
2022/04/16 04:18:27;;;;;;;38.08;26.95;;;;;;;4.30;100.00;103140.66;6186388;23;20002;-79
2022/04/16 04:20:53;;;;;;;36.63;25.98;;;;;;;4.16;100.00;103119.34;6185973;23;20410;-78
2022/04/16 04:23:19;;;;;;;37.40;26.10;;;;;;;4.25;100.00;103142.38;6186268;23;20016;-77
2022/04/16 04:25:44;;;;;;;40.63;27.67;;;;;;;4.23;100.00;103149.19;6185817;23;20339;-78
2022/04/16 04:28:11;;;;;;;41.53;28.05;;;;;;;4.10;100.00;103121.91;6185993;23;19997;-78
2022/04/16 04:30:36;;;;;;;39.22;26.95;;;;;;;4.24;100.00;103147.50;6159636;23;20012;-79
2022/04/16 04:33:02;;;;;;;42.00;27.27;;;;;;;3.92;100.00;103103.97;6186332;23;20005;-79
2022/04/16 04:35:27;;;;;;;40.10;27.75;;;;;;;4.13;100.00;103141.50;6186070;23;20001;-79
2022/04/16 04:37:53;;;;;;;38.08;27.65;;;;;;;4.18;100.00;103153.44;6185890;23;20016;-79
2022/04/16 04:40:18;;;;;;;41.13;28.52;;;;;;;3.95;100.00;103111.69;6159031;23;20092;-77
2022/04/16 04:42:44;;;;;;;43.20;29.02;;;;;;;4.05;100.00;103149.19;6158764;23;20005;-78
2022/04/16 04:45:11;;;;;;;39.97;28.65;;;;;;;4.15;100.00;103165.38;6186214;23;20000;-77
2022/04/16 04:47:37;;;;;;;42.72;28.13;;;;;;;3.99;100.00;103137.22;6185755;23;20009;-78
2022/04/16 04:50:03;;;;;;;43.65;28.35;;;;;;;3.98;100.00;103145.75;6185896;23;20351;-77
2022/04/16 04:52:30;;;;;;;41.60;28.42;;;;;;;3.86;100.00;103132.09;6185890;23;20041;-77
2022/04/16 04:54:56;;;;;;;41.90;28.30;;;;;;;3.86;100.00;103124.44;6185945;23;20005;-77
2022/04/16 04:57:22;;;;;;;41.50;27.95;;;;;;;4.15;100.00;103171.34;6185577;23;20038;-77
2022/04/16 04:59:47;;;;;;;41.42;26.75;;;;;;;3.96;100.00;103154.28;6185703;23;20001;-77
2022/04/16 05:02:13;;;;;;;41.30;29.20;;;;;;;4.14;100.00;103177.31;6185779;23;20024;-77
2022/04/16 05:04:39;;;;;;;37.95;27.58;;;;;;;4.15;100.00;103183.28;6186161;23;20075;-77
2022/04/16 05:07:05;;;;;;;40.28;28.58;;;;;;;4.15;100.00;103178.19;6185930;23;20099;-77
2022/04/16 05:09:31;;;;;;;43.05;28.58;;;;;;;4.24;100.00;103180.75;6185380;23;20419;-77
2022/04/16 05:11:56;;;;;;;40.83;28.17;;;;;;;4.28;100.00;103188.41;6185613;23;20047;-77
2022/04/16 05:14:25;;;;;;;45.38;30.10;;;;;;;4.25;100.00;103174.78;6185874;23;20043;-77
2022/04/16 05:16:50;;;;;;;40.45;28.83;;;;;;;4.08;100.00;103138.94;6185938;23;20005;-77
2022/04/16 05:19:16;;;;;;;46.78;29.88;;;;;;;4.40;100.00;103189.25;6185886;23;20001;-76
2022/04/16 05:21:42;;;;;;;45.80;29.30;;;;;;;4.50;100.00;103189.25;6185915;23;20009;-76
2022/04/16 05:24:07;;;;;;;44.83;29.88;;;;;;;4.33;100.00;103152.63;6185888;23;20005;-79
2022/04/16 05:26:33;;;;;;;41.80;28.27;;;;;;;4.54;100.00;103169.66;6185520;23;20023;-78
2022/04/16 05:28:58;;;;;;;46.00;30.20;;;;;;;4.70;100.00;103193.53;6185822;23;20064;-77
2022/04/16 05:31:26;;;;;;;42.15;29.20;;;;;;;4.66;100.00;103173.91;6185368;23;20080;-77
2022/04/16 05:36:36;;;;;;;45.05;30.50;;;;;;;4.90;100.00;103200.34;6185517;23;20036;-76
2022/04/16 05:39:01;;;;;;;45.45;31.25;;;;;;;4.99;100.00;103198.63;6185934;23;20324;-77
2022/04/16 05:41:26;;;;;;;46.60;31.50;;;;;;;5.09;100.00;103192.63;6187473;23;20454;-78
2022/04/16 05:43:53;;;;;;;45.85;31.08;;;;;;;5.17;100.00;103196.03;6187095;23;20423;-79
2022/04/16 05:46:18;;;;;;;45.83;31.75;;;;;;;5.02;99.86;103147.41;6187513;23;20001;-78
2022/04/16 05:48:44;;;;;;;47.47;32.28;;;;;;;5.68;100.00;103189.00;6187343;23;20437;-75
2022/04/16 05:51:10;;;;;;;43.05;30.90;;;;;;;6.88;97.08;103192.44;6187252;23;20012;-77
2022/04/16 05:53:35;;;;;;;41.40;30.08;;;;;;;8.02;90.21;103197.94;6187688;23;20055;-76
2022/04/16 05:56:01;;;;;;;34.55;26.00;;;;;;;8.96;85.16;103202.44;6187795;23;20009;-78
2022/04/16 05:58:27;;;;;;;36.40;26.35;;;;;;;9.39;82.11;103187.84;6187133;23;20317;-77
2022/04/16 06:00:54;;;;;;;34.63;24.90;;;;;;;10.15;79.40;103199.97;6187748;23;20016;-76
2022/04/16 06:03:20;;;;;;;35.03;25.17;;;;;;;10.72;75.18;103197.75;6187656;23;20033;-76
2022/04/16 06:05:46;;;;;;;31.13;23.08;;;;;;;11.37;74.07;103209.75;6187546;23;20027;-75
2022/04/16 06:08:11;;;;;;;31.70;23.23;;;;;;;11.95;71.57;103214.09;6187556;23;20408;-74
2022/04/16 06:10:39;;;;;;;31.73;23.75;;;;;;;12.47;68.27;103204.66;6187494;23;20043;-78
2022/04/16 06:13:08;;;;;;;29.40;22.67;;;;;;;12.15;67.13;103137.53;6187286;23;20091;-76
2022/04/16 06:15:33;;;;;;;30.25;22.77;;;;;;;12.96;66.17;103215.13;6161913;23;20032;-77
2022/04/16 06:17:58;;;;;;;32.65;23.20;;;;;;;13.01;64.75;103218.41;6187283;23;20051;-75
2022/04/16 06:20:24;;;;;;;31.98;23.85;;;;;;;12.90;65.46;103222.22;6160666;23;20005;-77
2022/04/16 06:22:49;;;;;;;33.35;24.20;;;;;;;13.10;64.46;103212.91;6160392;23;20008;-79
2022/04/16 06:25:14;;;;;;;35.90;24.48;;;;;;;13.47;63.83;103233.22;6187128;23;20423;-76
2022/04/16 06:27:40;;;;;;;33.40;24.63;;;;;;;13.20;62.82;103215.16;6187106;23;20001;-76
2022/04/16 06:30:10;;;;;;;35.17;24.75;;;;;;;12.96;63.83;103228.09;6187378;23;20009;-76
2022/04/16 06:32:36;;;;;;;33.85;24.58;;;;;;;12.67;64.35;103196.22;6186922;23;20088;-76
2022/04/16 06:35:05;;;;;;;38.35;25.63;;;;;;;13.23;63.97;103209.00;6187278;23;20029;-76
2022/04/16 06:37:36;;;;;;;32.85;24.48;;;;;;;13.67;62.66;103222.94;6187328;23;20096;-77
2022/04/16 06:40:03;;;;;;;36.63;24.95;;;;;;;13.97;61.32;103228.69;6187281;23;20374;-77
2022/04/16 06:42:28;;;;;;;33.88;24.33;;;;;;;14.39;60.65;103203.66;6186746;23;20009;-77
2022/04/16 06:44:53;;;;;;;35.38;24.73;;;;;;;14.96;58.66;103231.59;6187069;23;20012;-77
2022/04/16 06:47:19;;;;;;;35.17;24.27;;;;;;;15.30;57.63;103230.94;6187125;23;20113;-78
2022/04/16 06:49:44;;;;;;;33.55;24.50;;;;;;;15.46;56.65;103233.72;6187034;23;20005;-79
2022/04/16 06:52:09;;;;;;;37.45;24.48;;;;;;;15.64;56.36;103225.09;6186836;23;20416;-79
2022/04/16 06:54:36;;;;;;;32.63;24.85;;;;;;;15.89;56.13;103234.38;6159437;23;20071;-78
2022/04/16 06:57:01;;;;;;;33.58;25.02;;;;;;;15.97;55.07;103230.47;6187072;23;20012;-75
2022/04/16 06:59:26;;;;;;;34.17;24.02;;;;;;;16.23;53.93;103236.22;6187068;23;20092;-77
2022/04/16 07:01:51;;;;;;;38.33;26.02;;;;;;;16.20;53.72;103223.31;6186714;23;20009;-79
2022/04/16 07:04:17;;;;;;;36.67;24.70;;;;;;;15.90;53.34;103202.19;6186906;23;20012;-81
2022/04/16 07:06:42;;;;;;;34.08;24.88;;;;;;;16.29;53.45;103241.97;6187035;23;20434;-80
2022/04/16 07:09:08;;;;;;;33.95;24.35;;;;;;;15.82;54.50;103245.97;6187030;23;20001;-78
2022/04/16 07:11:33;;;;;;;36.55;25.15;;;;;;;14.67;56.65;103253.63;6186434;23;20378;-79
2022/04/16 07:13:59;;;;;;;35.70;25.40;;;;;;;13.41;60.75;103254.19;6186791;23;20009;-79
2022/04/16 07:16:24;;;;;;;37.35;26.92;;;;;;;12.47;64.66;103264.28;6186486;23;20005;-79
2022/04/16 07:18:49;;;;;;;38.63;27.60;;;;;;;11.80;66.69;103256.00;6187288;23;20029;-78
2022/04/16 07:21:17;;;;;;;40.35;27.27;;;;;;;11.02;69.31;103221.09;6186844;23;20080;-78
2022/04/16 07:23:43;;;;;;;39.65;27.60;;;;;;;10.82;71.50;103256.06;6186882;23;20339;-78
2022/04/16 07:26:08;;;;;;;37.95;27.27;;;;;;;10.47;73.02;103246.56;6186930;23;20015;-78
2022/04/16 07:28:33;;;;;;;41.72;27.48;;;;;;;10.27;73.91;103252.22;6186890;23;20055;-78
2022/04/16 07:30:59;;;;;;;38.28;27.00;;;;;;;10.04;75.62;103226.88;6186399;23;20028;-77
2022/04/16 07:33:28;;;;;;;41.88;28.00;;;;;;;10.16;75.82;103255.88;6186586;23;20001;-79
2022/04/16 07:35:53;;;;;;;39.13;25.85;;;;;;;10.16;75.80;103253.31;6186555;23;20013;-78
2022/04/16 07:38:27;;;;;;;38.20;27.35;;;;;;;10.06;76.70;103244.91;6186826;23;20013;-79
2022/04/16 07:41:09;;;;;;;38.92;26.95;;;;;;;9.49;76.41;103137.78;6157113;23;20067;-80
2022/04/16 07:43:39;;;;;;;38.92;27.10;;;;;;;9.36;76.19;103138.06;6186197;23;20036;-79
2022/04/16 07:46:11;;;;;;;39.13;26.60;;;;;;;10.14;76.86;103255.94;6184035;23;20008;-79
2022/04/16 07:48:46;;;;;;;38.95;27.33;;;;;;;9.37;76.59;103122.56;6186480;23;20001;-81
2022/04/16 07:51:26;;;;;;;40.92;28.25;;;;;;;9.74;76.88;103186.28;6186201;23;20005;-79
2022/04/16 07:53:53;;;;;;;36.75;25.20;;;;;;;10.15;76.92;103257.63;6186522;23;20008;-79
2022/04/16 07:56:21;;;;;;;35.88;25.23;;;;;;;10.16;76.99;103267.06;6186255;23;20442;-78
2022/04/16 07:58:47;;;;;;;38.95;25.80;;;;;;;10.12;77.92;103243.91;6185841;23;20011;-79
2022/04/16 08:01:13;;;;;;;36.25;24.80;;;;;;;10.09;76.85;103234.50;6185666;23;20080;-80
2022/04/16 08:03:38;;;;;;;37.70;27.08;;;;;;;10.28;77.63;103260.81;6185911;23;20335;-79
2022/04/16 08:06:03;;;;;;;39.05;26.35;;;;;;;10.39;78.34;103256.22;6185958;23;20025;-80
2022/04/16 08:08:29;;;;;;;35.10;26.20;;;;;;;10.42;76.57;103269.09;6186342;23;20008;-80
2022/04/16 08:10:54;;;;;;;35.25;25.50;;;;;;;10.45;76.11;103265.59;6186025;23;20011;-77
2022/04/16 08:13:20;;;;;;;35.00;24.40;;;;;;;10.48;76.00;103262.91;6185527;23;20001;-80
2022/04/16 08:15:46;;;;;;;34.75;24.65;;;;;;;10.23;75.81;103222.19;6185958;23;20005;-77
2022/04/16 08:18:12;;;;;;;34.40;24.75;;;;;;;10.50;76.52;103267.16;6186416;23;20005;-78
2022/04/16 08:20:37;;;;;;;35.42;23.88;;;;;;;10.46;75.50;103251.78;6185891;23;20503;-78
2022/04/16 08:23:06;;;;;;;36.92;25.00;;;;;;;10.50;76.45;103249.06;6185372;23;20036;-78
2022/04/16 08:28:01;;;;;;;33.05;23.00;;;;;;;10.26;75.78;103208.34;6195782;23;20343;-77
2022/04/16 08:30:29;;;;;;;33.47;24.08;;;;;;;10.60;74.84;103268.63;6186022;23;20029;-79
2022/04/16 08:32:54;;;;;;;33.80;23.30;;;;;;;10.54;75.48;103255.88;6186005;23;20012;-77
2022/04/16 08:35:20;;;;;;;33.65;23.75;;;;;;;10.72;75.45;103275.25;6185670;23;20087;-77
2022/04/16 08:37:48;;;;;;;29.85;22.52;;;;;;;10.53;75.52;103227.50;6185808;23;20011;-78
2022/04/16 08:40:14;;;;;;;33.17;22.17;;;;;;;10.89;74.71;103267.06;6185218;23;20012;-77
2022/04/16 08:42:41;;;;;;;31.88;22.15;;;;;;;10.96;73.93;103267.78;6185318;23;20016;-78
2022/04/16 08:45:09;;;;;;;31.88;23.75;;;;;;;10.68;73.65;103216.78;6185612;23;20012;-79
2022/04/16 08:47:35;;;;;;;33.53;23.75;;;;;;;10.75;73.66;103226.06;6183957;23;20001;-76
2022/04/16 08:50:03;;;;;;;33.83;22.80;;;;;;;10.99;74.87;103240.09;6185617;23;20047;-77
2022/04/16 08:52:33;;;;;;;34.00;23.27;;;;;;;11.25;73.35;103261.84;6185589;23;20084;-76
2022/04/16 08:54:59;;;;;;;31.90;22.45;;;;;;;11.40;72.50;103267.44;6185414;23;20028;-76
2022/04/16 08:57:25;;;;;;;29.05;21.60;;;;;;;11.47;72.71;103270.69;6185393;23;20423;-77
2022/04/16 08:59:54;;;;;;;31.70;22.70;;;;;;;11.32;71.59;103245.28;6184980;23;20008;-74
2022/04/16 09:02:23;;;;;;;30.98;21.20;;;;;;;11.43;71.45;103267.38;6185198;23;20001;-75
2022/04/16 09:04:49;;;;;;;29.13;20.30;;;;;;;11.51;72.04;103253.38;6186106;23;20105;-77
2022/04/16 09:07:30;;;;;;;29.60;21.33;;;;;;;11.48;71.64;103231.00;6185365;23;20012;-72
2022/04/16 09:10:08;;;;;;;30.07;20.10;;;;;;;11.77;71.51;103264.66;6185478;23;20411;-76
2022/04/16 09:12:38;;;;;;;28.77;20.30;;;;;;;11.83;70.15;103268.84;6185344;23;20040;-75
2022/04/16 09:15:11;;;;;;;25.45;18.42;;;;;;;11.82;70.72;103255.97;6185719;23;20052;-76
2022/04/16 09:17:37;;;;;;;26.13;18.50;;;;;;;11.84;68.91;103255.00;6185372;23;20346;-77
2022/04/16 09:20:08;;;;;;;28.17;19.40;;;;;;;11.83;69.83;103253.31;6185530;23;20338;-77
2022/04/16 09:22:35;;;;;;;24.88;18.27;;;;;;;11.78;70.10;103231.84;6185363;23;20059;-75
2022/04/16 09:25:02;;;;;;;23.17;17.17;;;;;;;12.06;67.88;103274.19;6185330;23;20001;-78
2022/04/16 09:27:38;;;;;;;27.48;19.73;;;;;;;12.03;68.34;103269.09;6184087;23;20005;-79
2022/04/16 09:30:04;;;;;;;25.05;19.15;;;;;;;12.07;69.51;103254.31;6185497;23;20442;-78
2022/04/16 09:32:30;;;;;;;26.42;18.40;;;;;;;12.13;68.52;103261.06;6184994;23;20011;-76
2022/04/16 09:34:56;;;;;;;25.17;18.42;;;;;;;11.87;67.68;103235.94;6185356;23;20386;-75
2022/04/16 09:37:23;;;;;;;23.77;18.30;;;;;;;11.97;68.58;103252.91;6185563;23;20005;-77
2022/04/16 09:39:49;;;;;;;24.80;18.45;;;;;;;11.88;68.59;103248.84;6183351;23;20001;-81
2022/04/16 09:42:27;;;;;;;22.73;16.95;;;;;;;12.03;67.44;103252.72;6185412;23;20316;-78
2022/04/16 09:44:52;;;;;;;23.20;17.67;;;;;;;11.91;67.59;103207.34;6185299;23;20084;-80
2022/04/16 09:47:23;;;;;;;21.10;15.68;;;;;;;12.20;67.63;103227.16;6185304;23;20032;-78
2022/04/16 09:49:51;;;;;;;21.00;15.13;;;;;;;12.48;66.61;103257.34;6185381;23;20367;-77
2022/04/16 09:52:22;;;;;;;20.80;15.15;;;;;;;12.21;63.85;103217.63;6185632;23;20044;-77
2022/04/16 09:54:50;;;;;;;20.98;14.38;;;;;;;12.34;62.85;103256.06;6185754;23;20008;-77
2022/04/16 09:57:20;;;;;;;19.30;14.88;;;;;;;12.25;65.00;103253.75;6185237;23;20080;-78
2022/04/16 09:59:52;;;;;;;18.95;14.40;;;;;;;12.32;64.57;103244.03;6185265;23;20001;-74
2022/04/16 10:02:21;;;;;;;21.73;14.63;;;;;;;12.32;62.74;103257.00;6185081;23;20076;-75
2022/04/16 10:04:47;;;;;;;16.52;13.40;;;;;;;12.27;63.81;103246.75;6184592;23;20309;-79
2022/04/16 10:07:13;;;;;;;18.05;13.75;;;;;;;12.01;64.31;103182.00;6184688;22;20017;-78
2022/04/16 10:09:41;;;;;;;17.95;13.27;;;;;;;12.50;61.52;103240.88;6185580;23;20008;-77
2022/04/16 10:15:08;;;;;;;18.52;12.20;;;;;;;12.52;61.56;103258.97;6195298;23;20013;-78
2022/04/16 10:17:35;;;;;;;16.77;11.07;;;;;;;12.34;59.54;103243.09;6185133;23;20013;-77
2022/04/16 10:20:15;;;;;;;16.33;10.85;;;;;;;12.37;61.39;103242.13;6185149;23;20412;-73
2022/04/16 10:22:40;;;;;;;13.85;10.73;;;;;;;12.23;61.27;103187.34;6185442;23;20025;-82
2022/04/16 10:25:09;;;;;;;10.43;7.20;;;;;;;12.49;58.56;103213.25;6184671;23;20322;-83
2022/04/16 10:27:40;;;;;;;16.23;10.75;;;;;;;12.55;58.80;103205.25;6187142;23;20005;-82
2022/04/16 10:30:13;;;;;;;13.50;9.10;;;;;;;12.72;58.73;103217.66;6187414;23;20001;-83
2022/04/16 10:32:40;;;;;;;11.07;7.55;;;;;;;13.06;57.87;103242.44;6186730;23;20335;-82
2022/04/16 10:35:11;;;;;;;6.65;4.40;;;;;;;12.87;52.30;103211.94;6186835;23;20005;-83
2022/04/16 10:37:38;;;;;;;8.73;6.68;;;;;;;13.09;54.14;103253.56;6187386;23;20027;-83
2022/04/16 10:40:25;;;;;;;14.00;7.57;;;;;;;13.07;56.40;103238.94;6187206;23;20009;-82
2022/04/16 10:43:01;;;;;;;12.77;8.27;;;;;;;12.69;57.44;103193.59;6187160;23;20012;-83
2022/04/16 10:45:35;;;;;;;9.85;7.32;;;;;;;12.81;55.49;103199.22;6186868;23;20071;-85
2022/04/16 10:48:45;;;;;;;9.45;6.72;;;;;;;12.22;56.15;103102.75;6185037;23;20032;-83
2022/04/16 10:58:25;;;;;;;12.77;6.55;;;;;;;12.01;53.57;103039.56;6067141;23;20018;-83
2022/04/16 11:01:42;;;;;;;10.30;6.85;;;;;;;13.33;54.81;103235.44;6012167;23;20032;-82
2022/04/16 11:04:22;;;;;;;9.48;6.55;;;;;;;12.39;55.38;103055.53;5953240;24;20419;-85
2022/04/16 11:06:57;;;;;;;10.38;6.57;;;;;;;12.39;55.10;103042.56;5923295;24;20018;-82
2022/04/16 11:16:47;;;;;;;9.73;6.55;;;;;;;13.52;54.17;103238.22;5898907;24;20025;-87
2022/04/16 11:19:15;;;;;;;8.95;6.20;;;;;;;13.48;53.07;103224.53;5898485;24;20096;-83
2022/04/16 11:34:38;;;;;;;10.27;7.18;;;;;;;13.49;52.97;103224.47;6112059;23;20072;-89
2022/04/16 11:37:06;;;;;;;9.50;6.55;;;;;;;13.47;51.55;103231.47;6156815;23;20002;-87
2022/04/16 11:39:32;;;;;;;8.90;6.78;;;;;;;13.41;52.07;103205.72;6156165;23;20420;-84
2022/04/16 11:41:59;;;;;;;10.90;7.40;;;;;;;13.41;53.27;103208.31;6155840;23;20002;-85
2022/04/16 17:20:11;;;;;;;6.95;4.10;;;;;;;14.20;37.14;103037.25;6185393;23;20362;-82
2022/04/16 17:23:53;;;;;;;7.57;4.10;;;;;;;14.12;36.42;103031.53;6185467;23;20022;-81
2022/04/16 17:26:32;;;;;;;7.65;4.38;;;;;;;13.65;35.73;102974.63;6185416;23;20012;-87
2022/04/16 17:29:09;;;;;;;7.10;3.75;;;;;;;13.49;36.49;102966.66;6185600;23;20013;-81
2022/04/16 17:31:35;;;;;;;7.63;3.70;;;;;;;13.78;34.30;103025.16;6185368;23;20009;-78
2022/04/16 17:34:03;;;;;;;6.28;3.35;;;;;;;13.53;35.95;103006.28;6186140;23;20391;-80
2022/04/16 17:36:29;;;;;;;5.25;3.13;;;;;;;13.17;36.08;102948.00;6185638;23;20080;-78
2022/04/16 17:38:54;;;;;;;4.47;2.95;;;;;;;13.54;36.32;103037.38;6187168;23;20041;-88